»·PEaware :: BOE561 KLAS-KSFO

BOE561 :: KLAS-KSFO

FLIGHT INFORMATION

Flight Status: Arrived
Operator:
Boeing Commercial Airplane Group
More flights by this operator :: More flights under this callsign
Pilot: Ben F. (2808)
Aircraft: BOEING 737-200
(B732)
More flights by this aircraft type
Origin: KLAS McCarran Intl
United States
Destination: KSFO San Francisco Intl
United States
More flights between these airports :: More routes between these airports
Route: MCCRN5 BTY J92 OAL MOD8
File this flight plan on PilotEdge
Remarks:
Altitude:
(Current/Filed)
32,000ft
Speed:
(Current/Filed)
433kts
Departed: 22-Mar-18 10:22 AM
Arrived: 22-Mar-18 11:37 AM
Distance/Time
Traveled:
359nm/1:15
Distance/Time
To Go:
Arrived

Flight Plot

Page will automatically refresh every two minutes.

Flight plan parsing failed; only flown route is shown


Map Options




Map Legend


Flown Route
Filed Route
Departure Airport
Arrival Airport
Navaid (VOR, NDB)
Fix

Horizontal Profiles

Position Reports

Time Latitude Longitude Heading Altitude Ground
Speed
22-Mar-18 10:09 36.081453 -115.171213 90 2189ft 0kts
22-Mar-18 10:10 36.081453 -115.171213 90 2189ft 0kts
22-Mar-18 10:11 36.081453 -115.171213 90 2189ft 0kts
22-Mar-18 10:12 36.081453 -115.171213 90 2189ft 0kts
22-Mar-18 10:13 36.081453 -115.171213 90 2189ft 0kts
22-Mar-18 10:14 36.081453 -115.171213 89 2189ft 0kts
22-Mar-18 10:15 36.081453 -115.171213 90 2189ft 0kts
22-Mar-18 10:16 36.081452 -115.170675 90 2189ft 3kts
22-Mar-18 10:17 36.082638 -115.168511 23 2189ft 19kts
22-Mar-18 10:18 36.089361 -115.164666 25 2189ft 28kts
22-Mar-18 10:19 36.096398 -115.160707 25 2189ft 27kts
22-Mar-18 10:20 36.099762 -115.157044 111 2189ft 12kts
22-Mar-18 10:21 36.092161 -115.160609 204 2189ft 120kts
22-Mar-18 10:22 36.052106 -115.189408 209 4187ft 181kts
22-Mar-18 10:23 36.019713 -115.239772 231 6771ft 195kts
22-Mar-18 10:24 35.985993 -115.299302 231 8988ft 232kts
22-Mar-18 10:25 35.942993 -115.374190 231 10332ft 301kts
22-Mar-18 10:26 35.904948 -115.467855 266 11775ft 325kts
22-Mar-18 10:27 35.913297 -115.578543 268 14164ft 327kts
22-Mar-18 10:28 35.922501 -115.687742 268 16366ft 331kts
22-Mar-18 10:29 35.932312 -115.801097 268 18312ft 337kts
22-Mar-18 10:30 35.943496 -115.916764 277 20004ft 351kts
22-Mar-18 10:31 36.013821 -116.010595 311 21420ft 392kts
22-Mar-18 10:32 36.101109 -116.094321 314 22676ft 403kts
22-Mar-18 10:33 36.191027 -116.177582 314 23806ft 409kts
22-Mar-18 10:34 36.280512 -116.260861 314 24794ft 414kts
22-Mar-18 10:35 36.372566 -116.346811 314 25703ft 419kts
22-Mar-18 10:36 36.465950 -116.434289 314 26533ft 423kts
22-Mar-18 10:37 36.559992 -116.522682 313 27239ft 428kts
22-Mar-18 10:38 36.654690 -116.611969 313 27916ft 431kts
22-Mar-18 10:39 36.747690 -116.700159 310 28581ft 430kts
22-Mar-18 10:40 36.783960 -116.823836 272 29153ft 386kts
22-Mar-18 10:41 36.860128 -116.928704 315 29612ft 442kts
22-Mar-18 10:42 36.981132 -116.974853 344 30305ft 472kts
22-Mar-18 10:43 37.096477 -117.030090 313 30773ft 438kts
22-Mar-18 10:44 37.197896 -117.106189 318 31206ft 447kts
22-Mar-18 10:45 37.304283 -117.185553 318 31599ft 449kts
22-Mar-18 10:46 37.410940 -117.265709 318 31973ft 453kts
22-Mar-18 10:47 37.516196 -117.352566 315 31971ft 459kts
22-Mar-18 10:48 37.568865 -117.476942 271 31967ft 400kts
22-Mar-18 10:49 37.579003 -117.613654 263 31956ft 388kts
22-Mar-18 10:50 37.583306 -117.744283 262 31942ft 385kts
22-Mar-18 10:51 37.583258 -117.876788 261 31912ft 383kts
22-Mar-18 10:52 37.585986 -118.010192 262 31909ft 382kts
22-Mar-18 10:53 37.589208 -118.143553 262 31907ft 381kts
22-Mar-18 10:54 37.592297 -118.275650 262 31908ft 380kts
22-Mar-18 10:55 37.595263 -118.407515 262 31923ft 379kts
22-Mar-18 10:56 37.598059 -118.539085 261 31960ft 377kts
22-Mar-18 10:57 37.600620 -118.666047 261 31973ft 376kts
22-Mar-18 10:58 37.602894 -118.793524 261 31975ft 376kts
22-Mar-18 10:59 37.604727 -118.901879 260 31976ft 377kts
22-Mar-18 11:00 37.607270 -119.053897 259 31973ft 377kts
22-Mar-18 11:01 37.609301 -119.184108 259 31975ft 377kts
22-Mar-18 11:02 37.610908 -119.292155 259 31974ft 379kts
22-Mar-18 11:03 37.612728 -119.423347 259 31971ft 382kts
22-Mar-18 11:04 37.614397 -119.554255 259 31969ft 383kts
22-Mar-18 11:05 37.615857 -119.677795 259 30579ft 378kts
22-Mar-18 11:06 37.617178 -119.804117 259 27964ft 370kts
22-Mar-18 11:07 37.618362 -119.927532 260 25575ft 358kts
22-Mar-18 11:08 37.619494 -120.046882 259 23946ft 327kts
22-Mar-18 11:09 37.620183 -120.154149 259 23961ft 326kts
22-Mar-18 11:10 37.620844 -120.269632 260 23952ft 358kts
22-Mar-18 11:11 37.621599 -120.395004 260 23923ft 377kts
22-Mar-18 11:12 37.622209 -120.526188 261 23539ft 389kts
22-Mar-18 11:13 37.622754 -120.650170 260 22777ft 356kts
22-Mar-18 11:14 37.622974 -120.747914 260 21375ft 337kts
22-Mar-18 11:15 37.623143 -120.858948 260 19902ft 325kts
22-Mar-18 11:16 37.622928 -120.961486 254 19667ft 295kts
22-Mar-18 11:17 37.611683 -121.059621 254 17502ft 294kts
22-Mar-18 11:18 37.601938 -121.155530 256 15210ft 288kts
22-Mar-18 11:19 37.593849 -121.250747 257 13568ft 274kts
22-Mar-18 11:20 37.583585 -121.340963 255 12074ft 264kts
22-Mar-18 11:21 37.572258 -121.427982 254 10949ft 255kts
22-Mar-18 11:22 37.560916 -121.513976 255 10953ft 263kts
22-Mar-18 11:23 37.549546 -121.600245 255 10946ft 256kts
22-Mar-18 11:24 37.532902 -121.679504 248 9815ft 251kts
22-Mar-18 11:25 37.513466 -121.760662 248 8432ft 249kts
22-Mar-18 11:26 37.495128 -121.837316 247 7944ft 222kts
22-Mar-18 11:27 37.488632 -121.910203 273 7847ft 235kts
22-Mar-18 11:28 37.499271 -121.988637 273 6781ft 232kts
22-Mar-18 11:29 37.508798 -122.065383 273 5700ft 229kts
22-Mar-18 11:30 37.523351 -122.142252 294 3913ft 236kts
22-Mar-18 11:31 37.551550 -122.209763 295 2695ft 209kts
22-Mar-18 11:32 37.575823 -122.267279 293 1646ft 175kts
22-Mar-18 11:33 37.593684 -122.309691 291 857ft 119kts
22-Mar-18 11:34 37.608454 -122.344659 291 303ft 115kts
22-Mar-18 11:35 37.620449 -122.373779 300 22ft 49kts
22-Mar-18 11:36 37.623100 -122.376262 293 22ft 12kts
22-Mar-18 11:37 37.625385 -122.381739 297 22ft 22kts
22-Mar-18 11:38 37.627688 -122.384865 49 22ft 7kts
22-Mar-18 11:39 37.627787 -122.384633 72 22ft 0kts

Navigation Log

Ident Type
Flight plan parsing failed, navigation log unavailable